Terminal Aerodrome Forecast
Issued by NWS Wilmington, OH

Current Version | Previous Version | Graphics & Text | Print | Product List | Glossary On
Versions: 1 2 3 4 5 6 7 8 9 10 11 12 13 14 15 16 17 18 19
000
FTUS41 KILN 280300 AAC
TAFCMH
TAF AMD
KCMH 280301Z 2803/2824 28010KT P6SM SCT050
     FM280900 30009KT P6SM VCSH OVC012
     FM281500 31011KT P6SM -SHRA BKN025
     FM281800 32012G20KT P6SM -SHRA BKN035
     FM282300 32010KT P6SM BKN035=

USA.gov is the U.S. government's official web portal to all federal, state and local government web resources and services.